Time;durP1;ratioP1;P1;durP2;ratioP2;P2;SDS_P1;SDS_P2;PMS_P1;PMS_P2;Temp;Humidity;BMP_temperature;BMP_pressure;BME280_temperature;BME280_humidity;BME280_pressure;Samples;Min_cycle;Max_cycle;Signal;HPM_P1;HPM_P2
2023/08/16 00:00:29;;;;;;;11.17;8.53;;;28.70;52.40;;;;;;4993727;28;20535;-77
2023/08/16 00:02:57;;;;;;;11.27;8.80;;;28.70;52.50;;;;;;4994755;28;20441;-77
2023/08/16 00:05:26;;;;;;;10.07;9.10;;;28.60;52.40;;;;;;4993858;28;20438;-77
2023/08/16 00:07:54;;;;;;;12.30;9.53;;;28.60;52.50;;;;;;4993545;28;20528;-77
2023/08/16 00:10:22;;;;;;;11.50;9.20;;;28.60;52.40;;;;;;4994103;28;20552;-77
2023/08/16 00:12:52;;;;;;;13.40;8.40;;;28.60;52.30;;;;;;4974327;28;20462;-77
2023/08/16 00:15:20;;;;;;;8.83;7.80;;;28.50;52.40;;;;;;5005714;28;20503;-77
2023/08/16 00:17:49;;;;;;;9.10;8.20;;;28.50;52.30;;;;;;4997269;28;20539;-77
2023/08/16 00:20:17;;;;;;;10.03;8.10;;;28.50;52.60;;;;;;4989421;28;20447;-77
2023/08/16 00:22:45;;;;;;;9.53;8.20;;;28.50;52.50;;;;;;5013387;28;20516;-77
2023/08/16 00:25:13;;;;;;;9.17;8.37;;;28.40;52.50;;;;;;4992749;28;20538;-77
2023/08/16 00:27:42;;;;;;;11.13;8.23;;;28.40;52.50;;;;;;4993585;28;20454;-77
2023/08/16 00:30:12;;;;;;;8.73;7.93;;;28.40;52.70;;;;;;5004251;28;20439;-77
2023/08/16 00:32:41;;;;;;;9.73;7.80;;;28.40;52.60;;;;;;5013098;28;20419;-77
2023/08/16 00:35:09;;;;;;;8.37;7.60;;;28.40;52.50;;;;;;4994222;28;20545;-77
2023/08/16 00:37:37;;;;;;;9.70;8.10;;;28.40;52.50;;;;;;4993232;28;20449;-77
2023/08/16 00:40:07;;;;;;;8.27;7.40;;;28.40;52.40;;;;;;4992207;28;20482;-77
2023/08/16 00:42:35;;;;;;;9.83;8.40;;;28.40;52.40;;;;;;4988760;28;20441;-77
2023/08/16 00:45:04;;;;;;;11.20;8.03;;;28.40;52.40;;;;;;4993099;28;20498;-77
2023/08/16 00:47:33;;;;;;;8.83;7.93;;;28.30;52.30;;;;;;5006969;28;20495;-77
2023/08/16 00:50:02;;;;;;;8.67;7.87;;;28.30;52.50;;;;;;4995901;28;20443;-77
2023/08/16 00:52:30;;;;;;;9.60;7.77;;;28.30;52.40;;;;;;5012560;28;20444;-77
2023/08/16 00:54:58;;;;;;;8.60;7.70;;;28.30;52.20;;;;;;4994660;28;20514;-77
2023/08/16 00:57:26;;;;;;;8.93;7.67;;;28.30;52.30;;;;;;4992593;28;20453;-77
2023/08/16 00:59:54;;;;;;;7.90;6.80;;;28.20;52.10;;;;;;4995197;28;20507;-77
2023/08/16 01:02:23;;;;;;;7.77;7.03;;;28.20;52.40;;;;;;4995738;28;20486;-77
2023/08/16 01:04:53;;;;;;;8.47;7.67;;;28.20;52.40;;;;;;5012619;28;20467;-78
2023/08/16 01:07:21;;;;;;;7.97;7.27;;;28.20;52.20;;;;;;5012104;28;20431;-77
2023/08/16 01:09:50;;;;;;;8.00;7.30;;;28.20;52.20;;;;;;4996718;28;20823;-76
2023/08/16 01:12:22;;;;;;;8.10;7.40;;;28.20;52.30;;;;;;4996411;28;20503;-76
2023/08/16 01:14:54;;;;;;;8.23;7.40;;;28.20;52.20;;;;;;4995748;28;20489;-77
2023/08/16 01:17:23;;;;;;;8.10;7.40;;;28.20;52.30;;;;;;5005134;28;20522;-77
2023/08/16 01:19:56;;;;;;;8.23;7.07;;;28.10;52.20;;;;;;5008205;28;20535;-77
2023/08/16 01:22:27;;;;;;;7.80;7.07;;;28.10;52.30;;;;;;4980414;28;20424;-77
2023/08/16 01:25:07;;;;;;;7.70;6.90;;;28.10;52.20;;;;;;5007765;28;20974;-77
2023/08/16 01:27:37;;;;;;;7.23;6.63;;;28.10;52.20;;;;;;5002014;28;20424;-77
2023/08/16 01:30:07;;;;;;;7.40;6.70;;;28.10;52.10;;;;;;5003946;28;20444;-77
2023/08/16 01:32:36;;;;;;;7.77;6.90;;;28.10;52.30;;;;;;4999039;28;20518;-77
2023/08/16 01:35:05;;;;;;;8.70;7.40;;;28.00;52.20;;;;;;4999188;28;20441;-77
2023/08/16 01:37:33;;;;;;;7.40;6.70;;;28.00;52.20;;;;;;5003553;28;20469;-78
2023/08/16 01:40:02;;;;;;;8.27;7.30;;;28.00;52.70;;;;;;5007417;28;20464;-78
2023/08/16 01:42:31;;;;;;;7.33;6.53;;;28.00;52.00;;;;;;5000697;28;20970;-77
2023/08/16 01:45:01;;;;;;;7.57;6.83;;;28.00;52.00;;;;;;5011713;28;20504;-75
2023/08/16 01:47:28;;;;;;;7.27;6.57;;;27.90;52.10;;;;;;4995039;28;20435;-77
2023/08/16 01:49:56;;;;;;;7.73;6.93;;;27.90;51.90;;;;;;4992017;28;20493;-77
2023/08/16 01:52:26;;;;;;;7.47;6.77;;;27.90;52.10;;;;;;4995642;28;20962;-77
2023/08/16 01:54:54;;;;;;;7.57;6.57;;;27.90;51.90;;;;;;4996408;28;20474;-76
2023/08/16 01:57:22;;;;;;;7.53;6.83;;;27.90;51.90;;;;;;4995715;28;20473;-76
2023/08/16 01:59:50;;;;;;;7.30;6.70;;;27.80;52.10;;;;;;5011753;28;20443;-76
2023/08/16 02:02:20;;;;;;;6.90;6.30;;;27.80;51.90;;;;;;5012294;28;20514;-76
2023/08/16 02:04:49;;;;;;;10.40;6.70;;;27.80;51.90;;;;;;5011856;28;20479;-77
2023/08/16 02:07:17;;;;;;;6.93;6.27;;;27.70;52.00;;;;;;4998253;28;20449;-76
2023/08/16 02:13:32;;;;;;;7.00;6.30;;;27.70;51.80;;;;;;4989169;28;20383;-76
2023/08/16 02:16:01;;;;;;;7.10;6.40;;;27.60;52.10;;;;;;5012826;28;20458;-76
2023/08/16 02:18:31;;;;;;;6.73;6.13;;;27.60;52.00;;;;;;5011638;28;20408;-76
2023/08/16 02:20:58;;;;;;;6.03;5.53;;;27.60;52.00;;;;;;4995510;28;20504;-76
2023/08/16 02:23:26;;;;;;;6.10;5.60;;;27.60;52.10;;;;;;5011889;28;20429;-77
2023/08/16 02:25:54;;;;;;;6.10;5.60;;;27.50;52.00;;;;;;5010648;28;20470;-76
2023/08/16 02:28:22;;;;;;;6.07;5.47;;;27.50;52.00;;;;;;5012617;28;20600;-76
2023/08/16 02:30:50;;;;;;;5.90;5.40;;;27.50;52.10;;;;;;4995299;28;20564;-76
2023/08/16 02:33:19;;;;;;;6.37;5.87;;;27.50;52.10;;;;;;4995282;28;20504;-76
2023/08/16 02:35:48;;;;;;;6.13;5.60;;;27.50;52.10;;;;;;5003381;28;20523;-77
2023/08/16 02:38:18;;;;;;;6.33;5.83;;;27.50;51.90;;;;;;4995329;28;20463;-77
2023/08/16 02:40:45;;;;;;;6.00;5.50;;;27.50;52.00;;;;;;4995541;28;20495;-77
2023/08/16 02:43:14;;;;;;;6.23;5.63;;;27.50;52.10;;;;;;5003205;28;20764;-76
2023/08/16 02:45:42;;;;;;;6.30;5.80;;;27.40;51.90;;;;;;4997354;28;20525;-76
2023/08/16 02:48:10;;;;;;;5.50;5.07;;;27.40;52.00;;;;;;5005489;28;20487;-77
2023/08/16 02:50:38;;;;;;;5.33;4.93;;;27.40;52.10;;;;;;4995305;28;20440;-76
2023/08/16 02:53:08;;;;;;;5.90;5.40;;;27.40;52.20;;;;;;4995020;28;20473;-77
2023/08/16 02:55:36;;;;;;;5.70;5.30;;;27.30;51.90;;;;;;4998887;28;20899;-76
2023/08/16 02:58:04;;;;;;;6.60;5.90;;;27.30;51.90;;;;;;5014568;28;20456;-76
2023/08/16 03:00:32;;;;;;;6.10;5.50;;;27.30;52.00;;;;;;4995149;28;21017;-76
2023/08/16 03:03:01;;;;;;;5.87;5.00;;;27.30;52.00;;;;;;4993068;28;20507;-76
2023/08/16 03:05:29;;;;;;;6.13;5.63;;;27.30;52.00;;;;;;4994643;28;20975;-77
2023/08/16 03:07:57;;;;;;;5.90;5.40;;;27.20;51.80;;;;;;5002100;28;20498;-76
2023/08/16 03:10:26;;;;;;;5.70;5.23;;;27.20;52.00;;;;;;4997862;28;20474;-77
2023/08/16 03:12:56;;;;;;;6.23;5.63;;;27.20;52.00;;;;;;5014196;28;20449;-76
2023/08/16 03:15:24;;;;;;;5.83;5.33;;;27.20;51.70;;;;;;5011962;28;20415;-76
2023/08/16 03:17:51;;;;;;;6.27;5.70;;;27.10;51.90;;;;;;4997349;28;20479;-77
2023/08/16 03:20:19;;;;;;;6.40;5.80;;;27.10;52.10;;;;;;4992638;28;20444;-77
2023/08/16 03:22:47;;;;;;;7.13;6.43;;;27.10;51.90;;;;;;4999829;28;20536;-77
2023/08/16 03:25:15;;;;;;;8.70;7.07;;;27.00;52.00;;;;;;4996645;28;20447;-76
2023/08/16 03:27:45;;;;;;;7.90;7.10;;;27.00;51.80;;;;;;5007545;28;20457;-76
2023/08/16 03:30:13;;;;;;;8.13;7.33;;;27.00;52.10;;;;;;5013928;28;20472;-76
2023/08/16 03:32:41;;;;;;;7.60;6.90;;;27.00;51.90;;;;;;5014140;28;20444;-76
2023/08/16 03:35:10;;;;;;;7.90;7.20;;;27.00;51.90;;;;;;4995354;28;20455;-76
2023/08/16 03:37:38;;;;;;;7.60;6.80;;;26.90;51.90;;;;;;4998315;28;20479;-77
2023/08/16 03:40:09;;;;;;;7.87;7.17;;;26.90;51.90;;;;;;5014193;28;20447;-77
2023/08/16 03:42:37;;;;;;;8.00;7.27;;;26.90;51.90;;;;;;5002105;28;20428;-77
2023/08/16 03:45:07;;;;;;;8.40;7.60;;;26.90;52.00;;;;;;4994504;28;20455;-77
2023/08/16 03:47:35;;;;;;;8.27;7.37;;;26.90;52.00;;;;;;4994196;28;20519;-77
2023/08/16 03:50:04;;;;;;;8.30;7.53;;;26.90;52.20;;;;;;4993842;28;20454;-77
2023/08/16 03:52:32;;;;;;;9.10;8.20;;;26.90;51.90;;;;;;4994005;28;20460;-76
2023/08/16 03:55:01;;;;;;;9.20;8.10;;;26.90;51.70;;;;;;5041320;23;20503;-81
2023/08/16 03:57:29;;;;;;;10.10;8.87;;;26.80;51.80;;;;;;5033123;28;20450;-81
2023/08/16 03:59:56;;;;;;;10.43;9.33;;;26.80;52.10;;;;;;5031542;28;20464;-81
2023/08/16 04:02:26;;;;;;;13.53;10.30;;;26.80;52.00;;;;;;5024980;28;20454;-81
2023/08/16 04:04:54;;;;;;;11.57;10.37;;;26.80;51.90;;;;;;5035872;28;20430;-81
2023/08/16 04:07:23;;;;;;;11.90;10.50;;;26.80;51.90;;;;;;5033859;28;20462;-81
2023/08/16 04:09:51;;;;;;;10.93;9.77;;;26.70;52.00;;;;;;5035035;28;20406;-81
2023/08/16 04:12:19;;;;;;;11.63;10.40;;;26.70;52.10;;;;;;5034569;28;20475;-81
2023/08/16 04:14:47;;;;;;;10.70;9.60;;;26.70;51.80;;;;;;5034110;28;20453;-81
2023/08/16 04:17:15;;;;;;;13.67;11.13;;;26.70;51.80;;;;;;5033992;28;20443;-81
2023/08/16 04:19:45;;;;;;;11.67;10.47;;;26.60;51.80;;;;;;5035095;28;20446;-81
2023/08/16 04:22:13;;;;;;;11.23;10.00;;;26.70;51.90;;;;;;5032045;28;20426;-81
2023/08/16 04:24:42;;;;;;;12.60;11.00;;;26.60;52.10;;;;;;5034118;28;20473;-81
2023/08/16 04:27:09;;;;;;;12.30;10.93;;;26.60;51.80;;;;;;5034284;28;20434;-81
2023/08/16 04:29:37;;;;;;;12.93;11.53;;;26.60;51.90;;;;;;5034471;28;20472;-81
2023/08/16 04:32:06;;;;;;;12.97;11.10;;;26.60;51.90;;;;;;5034962;28;20555;-81
2023/08/16 04:34:34;;;;;;;13.33;11.57;;;26.60;52.00;;;;;;5034667;28;20558;-81
2023/08/16 04:37:04;;;;;;;12.97;10.90;;;26.60;51.90;;;;;;5030528;28;20463;-81
2023/08/16 04:39:32;;;;;;;12.43;10.93;;;26.60;51.90;;;;;;5033807;28;20426;-81
2023/08/16 04:42:00;;;;;;;12.77;11.23;;;26.50;51.80;;;;;;5035273;28;20418;-80
2023/08/16 04:44:29;;;;;;;15.63;11.70;;;26.50;51.80;;;;;;5026913;28;20461;-80
2023/08/16 04:46:57;;;;;;;12.27;10.80;;;26.50;51.90;;;;;;5035563;28;20464;-80
2023/08/16 04:49:26;;;;;;;12.60;11.30;;;26.50;52.00;;;;;;5036268;28;20451;-81
2023/08/16 04:51:55;;;;;;;13.27;10.83;;;26.50;52.00;;;;;;5036790;28;20418;-81
2023/08/16 04:54:24;;;;;;;12.23;11.03;;;26.50;51.90;;;;;;5035840;28;20476;-81
2023/08/16 04:56:53;;;;;;;13.47;11.63;;;26.50;51.80;;;;;;5036468;28;20777;-81
2023/08/16 04:59:21;;;;;;;12.40;11.10;;;26.40;52.00;;;;;;5033939;28;20449;-81
2023/08/16 05:01:49;;;;;;;12.97;11.57;;;26.40;51.90;;;;;;5036167;28;20417;-81
2023/08/16 05:04:17;;;;;;;13.40;12.00;;;26.40;51.90;;;;;;5035322;28;20442;-80
2023/08/16 05:06:45;;;;;;;13.23;11.50;;;26.40;52.10;;;;;;5032294;28;20468;-81
2023/08/16 05:09:13;;;;;;;13.83;11.90;;;26.40;51.90;;;;;;5031739;28;20436;-80
2023/08/16 05:11:43;;;;;;;12.53;11.23;;;26.40;51.80;;;;;;5021256;28;20477;-80
2023/08/16 05:14:10;;;;;;;12.67;10.90;;;26.40;51.80;;;;;;5026876;28;20471;-81
2023/08/16 05:16:38;;;;;;;12.47;11.17;;;26.40;51.80;;;;;;5031475;28;20429;-81
2023/08/16 05:19:06;;;;;;;13.53;12.13;;;26.30;51.80;;;;;;5018200;28;20450;-80
2023/08/16 05:21:35;;;;;;;13.67;12.20;;;26.30;52.00;;;;;;5013771;28;20438;-80
2023/08/16 05:24:03;;;;;;;14.37;12.37;;;26.30;51.80;;;;;;5013823;28;20958;-81
2023/08/16 05:26:31;;;;;;;12.80;11.40;;;26.30;51.80;;;;;;5013509;28;20450;-79
2023/08/16 05:29:01;;;;;;;13.50;12.10;;;26.30;52.00;;;;;;5012729;28;20964;-81
2023/08/16 05:31:29;;;;;;;13.40;11.97;;;26.30;51.80;;;;;;5021817;28;20447;-81
2023/08/16 05:33:57;;;;;;;16.20;13.70;;;26.30;51.90;;;;;;5033932;28;20473;-81
2023/08/16 05:36:28;;;;;;;14.47;12.13;;;26.30;52.00;;;;;;5032494;28;20411;-80
2023/08/16 05:38:56;;;;;;;13.33;11.87;;;26.30;51.80;;;;;;5013961;28;20487;-80
2023/08/16 05:41:24;;;;;;;13.17;11.83;;;26.30;51.90;;;;;;5016379;28;20415;-80
2023/08/16 05:43:52;;;;;;;15.70;13.17;;;26.30;51.80;;;;;;5036991;28;20459;-80
2023/08/16 05:46:21;;;;;;;15.50;13.20;;;26.30;51.90;;;;;;5038205;28;20470;-80
2023/08/16 05:48:49;;;;;;;14.10;12.60;;;26.30;51.90;;;;;;5036152;28;20447;-81
2023/08/16 05:51:17;;;;;;;14.17;12.67;;;26.30;51.70;;;;;;5036180;28;20441;-81
2023/08/16 05:53:45;;;;;;;15.27;13.43;;;26.20;51.70;;;;;;5038610;28;20481;-81
2023/08/16 05:56:13;;;;;;;14.70;13.20;;;26.20;51.70;;;;;;5038577;28;20479;-81
2023/08/16 05:58:41;;;;;;;15.00;13.40;;;26.20;51.80;;;;;;5037905;28;20402;-81
2023/08/16 06:01:09;;;;;;;16.00;13.60;;;26.20;51.70;;;;;;5038409;28;20481;-81
2023/08/16 06:03:38;;;;;;;17.37;14.10;;;26.20;51.80;;;;;;5037193;28;20474;-80
2023/08/16 06:06:07;;;;;;;17.73;14.17;;;26.20;51.90;;;;;;5038533;28;20436;-81
2023/08/16 06:08:35;;;;;;;15.87;13.37;;;26.20;51.90;;;;;;5037661;28;20540;-81
2023/08/16 06:11:02;;;;;;;17.13;14.20;;;26.20;51.80;;;;;;5037949;28;20519;-80
2023/08/16 06:13:31;;;;;;;17.40;14.60;;;26.30;51.80;;;;;;5037900;28;20450;-81
2023/08/16 06:15:59;;;;;;;15.70;13.93;;;26.30;51.80;;;;;;5038061;28;20493;-81
2023/08/16 06:18:27;;;;;;;15.87;13.70;;;26.30;51.90;;;;;;5038176;28;20410;-81
2023/08/16 06:20:56;;;;;;;15.63;13.20;;;26.30;51.70;;;;;;5032732;28;20520;-80
2023/08/16 06:23:24;;;;;;;16.17;14.17;;;26.30;51.80;;;;;;5038788;28;20473;-81
2023/08/16 06:25:52;;;;;;;16.20;14.07;;;26.40;51.60;;;;;;5039113;28;20936;-80
2023/08/16 06:28:20;;;;;;;17.93;14.13;;;26.40;51.60;;;;;;5035703;28;20491;-81
2023/08/16 06:30:49;;;;;;;15.13;12.47;;;26.50;51.80;;;;;;5033956;28;20513;-80
2023/08/16 06:33:17;;;;;;;14.73;12.97;;;26.50;51.50;;;;;;5037541;28;20502;-81
2023/08/16 06:35:46;;;;;;;16.03;14.33;;;26.50;51.50;;;;;;5038243;28;20441;-81
2023/08/16 06:38:15;;;;;;;16.40;14.07;;;26.60;51.50;;;;;;5037838;28;20443;-81
2023/08/16 06:40:43;;;;;;;16.27;14.17;;;26.60;51.40;;;;;;5037531;28;20440;-80
2023/08/16 06:43:12;;;;;;;15.97;14.27;;;26.60;51.40;;;;;;5035270;28;20456;-81
2023/08/16 06:45:40;;;;;;;15.53;13.80;;;26.70;51.50;;;;;;5034686;28;20469;-81
2023/08/16 06:48:07;;;;;;;14.37;12.87;;;26.70;51.40;;;;;;5033488;28;20456;-81
2023/08/16 06:50:35;;;;;;;14.77;13.00;;;26.70;51.20;;;;;;5028682;28;20417;-81
2023/08/16 06:53:04;;;;;;;13.83;12.43;;;26.80;51.40;;;;;;5035600;28;20445;-81
2023/08/16 06:55:35;;;;;;;13.60;12.10;;;26.90;51.40;;;;;;5038246;28;20467;-80
2023/08/16 06:58:05;;;;;;;14.33;12.63;;;26.90;51.20;;;;;;5037169;28;20427;-81
2023/08/16 07:00:34;;;;;;;16.20;14.37;;;26.90;51.30;;;;;;5034110;28;20414;-81
2023/08/16 07:03:03;;;;;;;14.03;12.53;;;27.00;51.40;;;;;;5038810;28;20478;-81
2023/08/16 07:05:31;;;;;;;13.87;12.40;;;27.10;51.20;;;;;;5037140;28;20446;-81
2023/08/16 07:07:59;;;;;;;15.33;12.83;;;27.10;51.10;;;;;;5037300;28;20496;-80
2023/08/16 07:10:27;;;;;;;13.50;12.10;;;27.20;51.10;;;;;;5037526;28;20441;-80
2023/08/16 07:12:56;;;;;;;14.17;12.67;;;27.30;51.10;;;;;;5023937;28;20463;-79
2023/08/16 07:15:24;;;;;;;14.50;12.30;;;27.40;51.00;;;;;;5033585;28;20533;-80
2023/08/16 07:17:51;;;;;;;12.83;11.53;;;27.50;50.90;;;;;;5036914;28;20497;-80
2023/08/16 07:20:19;;;;;;;13.93;12.43;;;27.50;50.60;;;;;;5035767;28;20459;-81
2023/08/16 07:22:47;;;;;;;14.30;12.30;;;27.60;50.70;;;;;;5037760;28;20886;-79
2023/08/16 07:25:15;;;;;;;13.00;11.70;;;27.70;50.50;;;;;;5032566;28;20463;-80
2023/08/16 07:27:43;;;;;;;13.13;11.10;;;27.70;50.60;;;;;;5029426;28;20472;-80
2023/08/16 07:30:13;;;;;;;12.63;11.17;;;27.80;50.50;;;;;;5029089;28;20438;-78
2023/08/16 07:32:41;;;;;;;13.47;11.60;;;27.90;50.50;;;;;;5032906;28;20483;-79
2023/08/16 07:35:09;;;;;;;12.23;10.80;;;28.00;50.40;;;;;;5032895;28;20452;-79
2023/08/16 07:37:37;;;;;;;11.30;10.20;;;28.10;50.20;;;;;;5028861;28;20419;-77
2023/08/16 07:40:06;;;;;;;12.33;10.83;;;28.20;50.00;;;;;;5037038;28;20510;-79
2023/08/16 07:42:34;;;;;;;12.50;11.20;;;28.30;49.70;;;;;;5034140;28;20514;-80
2023/08/16 07:45:02;;;;;;;11.40;10.30;;;28.30;49.80;;;;;;5030074;28;20546;-79
2023/08/16 07:47:32;;;;;;;11.57;10.37;;;28.40;49.70;;;;;;5027362;28;20455;-80
2023/08/16 07:50:01;;;;;;;11.60;10.50;;;28.50;49.60;;;;;;5027480;28;20475;-80
2023/08/16 07:52:29;;;;;;;11.40;10.30;;;28.50;49.70;;;;;;5028294;28;20450;-80
2023/08/16 07:54:57;;;;;;;11.77;10.57;;;28.60;49.40;;;;;;5026687;28;20475;-80
2023/08/16 07:57:25;;;;;;;11.93;10.73;;;28.60;49.40;;;;;;5029172;28;20880;-80
2023/08/16 07:59:53;;;;;;;11.00;9.90;;;28.70;49.40;;;;;;5029531;28;20454;-80
2023/08/16 08:02:22;;;;;;;12.70;11.17;;;28.70;49.40;;;;;;5029545;28;20524;-80
2023/08/16 08:04:52;;;;;;;12.00;10.80;;;28.80;49.40;;;;;;5032073;28;20471;-79
2023/08/16 08:07:20;;;;;;;12.10;10.60;;;28.70;49.30;;;;;;5032147;28;20490;-80
2023/08/16 08:09:48;;;;;;;11.43;10.37;;;28.80;49.40;;;;;;5026337;28;20929;-80
2023/08/16 08:12:16;;;;;;;12.03;10.87;;;28.80;49.20;;;;;;5029439;28;20486;-80
2023/08/16 08:14:44;;;;;;;10.73;9.73;;;28.90;49.40;;;;;;5026963;28;20479;-80
2023/08/16 08:17:13;;;;;;;11.97;10.77;;;28.90;49.40;;;;;;5026430;28;20580;-80
2023/08/16 08:19:40;;;;;;;10.80;9.70;;;28.90;49.30;;;;;;5028228;28;20503;-80
2023/08/16 08:22:11;;;;;;;10.93;9.83;;;28.90;49.20;;;;;;5030161;28;20461;-80
2023/08/16 08:24:38;;;;;;;11.63;10.33;;;28.90;49.20;;;;;;5029138;28;20533;-80
2023/08/16 08:27:07;;;;;;;11.30;10.10;;;29.00;49.40;;;;;;5029136;28;20524;-80
2023/08/16 08:29:35;;;;;;;11.10;10.00;;;28.90;49.30;;;;;;5027291;28;20479;-80
2023/08/16 08:32:04;;;;;;;10.20;9.23;;;29.00;49.30;;;;;;5028694;28;20447;-80
2023/08/16 08:34:32;;;;;;;11.40;10.20;;;29.00;49.20;;;;;;5024685;28;20464;-80
2023/08/16 08:37:00;;;;;;;10.07;9.17;;;29.00;49.30;;;;;;5028893;28;20450;-80
2023/08/16 08:39:30;;;;;;;9.93;8.97;;;29.00;49.30;;;;;;5027758;28;20542;-80
2023/08/16 08:41:58;;;;;;;9.90;9.00;;;29.00;49.30;;;;;;5029752;28;20452;-80
2023/08/16 08:44:28;;;;;;;10.43;9.33;;;29.00;49.30;;;;;;5027255;28;20989;-80
2023/08/16 08:46:56;;;;;;;10.53;9.53;;;29.00;49.50;;;;;;5024836;28;20531;-80
2023/08/16 08:49:37;;;;;;;10.77;9.67;;;29.00;49.50;;;;;;5026231;28;20472;-80
2023/08/16 08:52:06;;;;;;;9.00;8.20;;;29.10;49.30;;;;;;5027761;28;20471;-80
2023/08/16 08:54:36;;;;;;;9.67;8.67;;;29.10;49.20;;;;;;5025665;28;20499;-80
2023/08/16 08:57:04;;;;;;;9.60;8.70;;;29.10;49.30;;;;;;5029938;28;20418;-79
2023/08/16 08:59:32;;;;;;;9.67;8.70;;;29.10;49.40;;;;;;5026095;28;20460;-80
2023/08/16 09:02:01;;;;;;;9.90;8.90;;;29.10;49.30;;;;;;5028928;28;20443;-80
2023/08/16 09:04:30;;;;;;;9.43;8.53;;;29.10;49.40;;;;;;5026184;28;20527;-80
2023/08/16 09:06:59;;;;;;;9.13;8.20;;;29.10;49.40;;;;;;5025916;28;20492;-80
2023/08/16 09:09:28;;;;;;;8.87;8.00;;;29.20;49.30;;;;;;5034322;28;20467;-80
2023/08/16 09:11:58;;;;;;;8.53;7.80;;;29.20;49.30;;;;;;5034348;28;20451;-80
2023/08/16 09:14:27;;;;;;;9.10;8.20;;;29.20;49.30;;;;;;5033199;28;20471;-80
2023/08/16 09:16:55;;;;;;;8.40;7.67;;;29.20;49.20;;;;;;5034818;28;20479;-80
2023/08/16 09:19:23;;;;;;;9.37;8.57;;;29.20;49.20;;;;;;5022158;28;20449;-80
2023/08/16 09:21:52;;;;;;;9.03;8.23;;;29.20;49.20;;;;;;5025489;28;20476;-80
2023/08/16 09:24:23;;;;;;;8.97;8.17;;;29.20;49.30;;;;;;5035558;28;20505;-79
2023/08/16 09:26:52;;;;;;;9.37;8.50;;;29.30;49.30;;;;;;5035299;28;20452;-80
2023/08/16 09:29:22;;;;;;;9.83;8.40;;;29.30;49.30;;;;;;5022963;28;20497;-80
2023/08/16 09:31:50;;;;;;;7.87;7.27;;;29.30;49.30;;;;;;5031574;28;20502;-80
2023/08/16 09:34:20;;;;;;;8.13;7.43;;;29.30;49.20;;;;;;5034662;28;20558;-80
2023/08/16 09:37:02;;;;;;;8.03;7.33;;;29.30;49.40;;;;;;5034742;28;20443;-80
2023/08/16 09:39:30;;;;;;;8.40;7.70;;;29.30;49.20;;;;;;5035201;28;20497;-80
2023/08/16 09:41:59;;;;;;;8.60;7.80;;;29.30;49.30;;;;;;5018705;28;20451;-80
2023/08/16 09:44:30;;;;;;;7.60;6.93;;;29.30;49.30;;;;;;5036206;28;20445;-80
2023/08/16 09:46:58;;;;;;;8.47;7.67;;;29.40;49.40;;;;;;5033899;28;20443;-80
2023/08/16 09:49:33;;;;;;;8.83;7.87;;;29.40;49.20;;;;;;5035707;28;20507;-80
2023/08/16 09:52:01;;;;;;;7.50;6.90;;;29.50;49.30;;;;;;5034433;28;20449;-80
2023/08/16 09:54:32;;;;;;;8.70;6.57;;;29.50;49.20;;;;;;5062584;23;20504;-80
2023/08/16 09:57:00;;;;;;;7.20;6.60;;;29.60;49.30;;;;;;5031889;28;20496;-79
2023/08/16 09:59:32;;;;;;;7.90;7.20;;;29.60;49.10;;;;;;5038647;28;20416;-79
2023/08/16 10:02:03;;;;;;;7.23;6.53;;;29.60;49.10;;;;;;5042178;28;20807;-79
2023/08/16 10:04:34;;;;;;;7.80;6.77;;;29.60;49.20;;;;;;5048835;28;20460;-80
2023/08/16 10:07:06;;;;;;;7.30;6.70;;;29.70;49.10;;;;;;5048723;28;20439;-80
2023/08/16 10:09:37;;;;;;;6.73;6.03;;;29.80;49.00;;;;;;5046683;28;20449;-79
2023/08/16 10:12:06;;;;;;;7.20;6.60;;;29.80;48.90;;;;;;5047646;28;20505;-80
2023/08/16 10:14:37;;;;;;;6.90;6.40;;;29.80;48.90;;;;;;5048224;28;20451;-79
2023/08/16 10:17:07;;;;;;;7.53;6.83;;;29.80;48.90;;;;;;5048357;28;20430;-80
2023/08/16 10:19:36;;;;;;;6.57;6.10;;;29.80;48.80;;;;;;5047162;28;20409;-80
2023/08/16 10:22:08;;;;;;;6.57;5.97;;;29.80;49.00;;;;;;5046845;28;20448;-80
2023/08/16 10:24:54;;;;;;;6.40;5.90;;;29.90;48.80;;;;;;5048461;28;20462;-79
2023/08/16 10:27:22;;;;;;;7.33;6.20;;;29.90;48.80;;;;;;5047211;28;21035;-80
2023/08/16 10:29:54;;;;;;;6.80;6.30;;;29.90;48.90;;;;;;5051084;28;20482;-79
2023/08/16 10:32:24;;;;;;;6.20;5.70;;;30.00;48.80;;;;;;5044217;28;20438;-79
2023/08/16 10:34:54;;;;;;;6.20;5.70;;;30.00;48.80;;;;;;5050185;28;20447;-80
2023/08/16 10:37:22;;;;;;;6.63;6.10;;;30.00;48.70;;;;;;5052370;28;20482;-79
2023/08/16 10:39:52;;;;;;;6.10;5.57;;;30.10;48.80;;;;;;5051444;28;20507;-80
2023/08/16 10:42:26;;;;;;;5.83;5.33;;;30.10;48.60;;;;;;5048683;28;20460;-80
2023/08/16 10:44:55;;;;;;;5.70;5.20;;;30.10;48.50;;;;;;5048898;28;20550;-80
2023/08/16 10:47:28;;;;;;;4.83;4.53;;;30.20;48.50;;;;;;5051614;28;20428;-80
2023/08/16 10:49:56;;;;;;;5.87;5.27;;;30.20;48.40;;;;;;5056648;28;20466;-80
2023/08/16 10:52:28;;;;;;;5.87;5.30;;;30.20;49.00;;;;;;5044514;28;20432;-80
2023/08/16 10:54:56;;;;;;;5.87;5.37;;;30.20;48.30;;;;;;5044538;28;20468;-80
2023/08/16 10:57:25;;;;;;;4.73;4.43;;;30.30;48.30;;;;;;5042477;28;20430;-80
2023/08/16 11:00:05;;;;;;;4.63;4.33;;;30.40;48.30;;;;;;5042768;28;20468;-80
2023/08/16 11:02:33;;;;;;;4.93;4.63;;;30.40;48.10;;;;;;5045994;28;20427;-81
2023/08/16 11:05:01;;;;;;;5.27;4.87;;;30.50;48.00;;;;;;5052401;28;20470;-80
2023/08/16 11:07:30;;;;;;;5.20;4.80;;;30.50;48.10;;;;;;5051528;28;20463;-80
2023/08/16 11:09:59;;;;;;;4.73;4.40;;;30.50;48.10;;;;;;5051448;28;20541;-81
2023/08/16 11:12:31;;;;;;;5.10;4.77;;;30.60;48.00;;;;;;5054943;28;20419;-80
2023/08/16 11:14:59;;;;;;;5.00;4.70;;;30.70;47.90;;;;;;5058120;28;20448;-80
2023/08/16 11:17:29;;;;;;;4.40;4.17;;;30.70;48.50;;;;;;5050769;28;20480;-80
2023/08/16 11:20:00;;;;;;;4.27;4.00;;;30.80;47.60;;;;;;5052780;28;20454;-81
2023/08/16 11:22:28;;;;;;;4.40;4.20;;;30.80;47.80;;;;;;5052761;28;20452;-80
2023/08/16 11:24:56;;;;;;;4.30;4.00;;;31.00;47.60;;;;;;5054747;28;20453;-80
2023/08/16 11:27:25;;;;;;;4.50;4.20;;;31.00;47.60;;;;;;5030691;28;20436;-80
2023/08/16 11:29:54;;;;;;;4.37;4.10;;;31.10;47.50;;;;;;5030137;28;20460;-80
2023/08/16 11:32:35;;;;;;;4.20;3.90;;;31.20;47.40;;;;;;5041709;28;20431;-81
2023/08/16 11:35:06;;;;;;;4.53;4.20;;;31.30;47.20;;;;;;5047861;28;20498;-80
2023/08/16 11:37:34;;;;;;;3.60;3.40;;;31.60;47.10;;;;;;5049506;28;20519;-80
2023/08/16 11:40:09;;;;;;;4.00;3.70;;;31.70;46.60;;;;;;5049360;28;20427;-81
2023/08/16 11:42:37;;;;;;;4.80;3.83;;;31.80;46.60;;;;;;5050993;28;20513;-80
2023/08/16 11:45:19;;;;;;;6.60;3.93;;;31.80;46.70;;;;;;5050064;28;20570;-79
2023/08/16 11:47:52;;;;;;;3.57;3.33;;;31.80;46.40;;;;;;5051025;28;20431;-79
2023/08/16 11:50:22;;;;;;;3.93;3.70;;;31.70;46.40;;;;;;5050566;28;20474;-79
2023/08/16 11:52:57;;;;;;;4.17;3.80;;;31.70;46.60;;;;;;5048937;28;20467;-78
2023/08/16 11:55:28;;;;;;;3.50;3.30;;;31.60;46.60;;;;;;5042629;28;20463;-78
2023/08/16 11:58:03;;;;;;;3.20;3.10;;;31.60;46.70;;;;;;5050370;28;20461;-78
2023/08/16 12:00:32;;;;;;;3.33;3.03;;;31.60;46.70;;;;;;5050550;28;20485;-78
2023/08/16 12:03:04;;;;;;;3.43;3.20;;;31.60;46.80;;;;;;5055676;28;20427;-79
2023/08/16 12:05:36;;;;;;;3.10;3.00;;;31.60;46.90;;;;;;5055260;28;20451;-78
2023/08/16 12:08:04;;;;;;;3.50;3.30;;;31.60;46.90;;;;;;5053063;28;20447;-79
2023/08/16 12:10:33;;;;;;;3.83;3.50;;;31.60;47.00;;;;;;5048573;28;20463;-78
2023/08/16 12:13:03;;;;;;;3.57;3.37;;;31.60;47.00;;;;;;5050441;28;20452;-78
2023/08/16 12:15:32;;;;;;;3.33;2.87;;;31.60;47.00;;;;;;5051129;28;20478;-79
2023/08/16 12:18:00;;;;;;;3.20;3.00;;;31.60;46.90;;;;;;5050788;28;20443;-79
2023/08/16 12:20:30;;;;;;;3.23;3.07;;;31.70;47.00;;;;;;5043314;28;20428;-79
2023/08/16 12:22:58;;;;;;;3.50;3.30;;;31.80;47.00;;;;;;5051593;28;20439;-79
2023/08/16 12:25:27;;;;;;;2.73;2.53;;;31.90;46.70;;;;;;5039903;28;20471;-79
2023/08/16 12:27:55;;;;;;;2.70;2.60;;;31.90;46.70;;;;;;5046793;28;20454;-78
2023/08/16 12:30:23;;;;;;;3.20;3.00;;;32.10;46.60;;;;;;5050291;28;20487;-79
2023/08/16 12:32:51;;;;;;;4.07;3.00;;;32.10;46.30;;;;;;5050200;28;20439;-79
2023/08/16 12:35:19;;;;;;;3.30;3.10;;;32.20;46.20;;;;;;5050236;28;20482;-79
2023/08/16 12:37:49;;;;;;;3.30;3.20;;;32.20;46.20;;;;;;5049990;28;20431;-79
2023/08/16 12:40:17;;;;;;;3.80;3.50;;;32.20;46.20;;;;;;5050427;28;20454;-79
2023/08/16 12:42:46;;;;;;;3.50;3.20;;;32.20;46.20;;;;;;5050837;28;20450;-78
2023/08/16 12:45:14;;;;;;;2.50;2.40;;;32.20;46.30;;;;;;5049124;28;20483;-79
2023/08/16 12:47:42;;;;;;;3.27;3.07;;;32.20;46.00;;;;;;5049929;28;20436;-79
2023/08/16 12:50:10;;;;;;;2.80;2.60;;;32.10;46.10;;;;;;5057338;28;20457;-79